Decoded Metar for KVUJ (ALBEMARLE STANLY in NC, USA) (IATA:VUJ) | Meteo·Mobile Aviation Weather
aviador You're here:

KVUJ Decoded Metar

ALBEMARLE STANLY in NC, USA
Report Time2019-07-23 02:20:00
UTC Time2019-07-23 02:36:00
Flight Rules vfr VFR
Wind210° at 05 kt
W.Decomp.*RWY 22: 5.0 kt HW 0.3 kt LCW
Visibility9999 m
Phenomena:N/A
Clouds:Scattered 060 Hf
Overcast 065 Hf
Expected CloudBase > 3,600 ft AGL from Temp-Dew spread
Ceiling6,500 ft
Temp29°C (ISA +15)
Dew Point20°C (58% RH)
Heat Index30.7°C
QNH1015 hPa
Density Alt2,598 ft
Elevation610 ft
Report Wrong Elevation
Raw Report
KVUJ 230220Z AUTO 21005KT 10SM SCT060 OVC065 29/20 A2997 RMK AO2
LTG DSNT SE T02850204=

Extra information for KVUJ:More info

Metar Taf Metar & Taf Last 4 Metars F.Rules Stats Wind Profile Meteogram Temp Stats Airport Information Weather charts Add Link Nearby VenuesMetar ALERT Operation Metar Decoded Social comments

AIRNAV info for KVUJ